Hovedside
METAR-TAF:

METAR-TAF

Lufthavner :

Gamvik, Norge

Mehamn lufthavn

breddegrad: 71-02N, lengdegrad: 027-50E, høyde over havet: 1 m

Gjeldene værobservasjon

Denne rapporten ble laget for 1 time og 14 minutter siden, klokken 09:50 UTC
Vind 9 kt fra Nord-nordøst
Temperatur 3°C
Luftfuktighet 56%
Trykk 1012 hPa
Sikt 10 km eller mer
Brutte skyer i en høyde av 4500 ft

METAR: ENMH 270950Z 03009KT 9999 BKN045 03/M05 Q1012

Tid: 13:04 (11:04 UTC)


TAF: fraværende

Værobservasjoner og værvarsel for over 4000 flyplasser (METAR- og TAF-rapporter).

Tilgjengelige stasjoner er representert av de røde og gule prikkene på kartet.

Hold musepekeren over prikken for å se navnet på stasjonen.

Klikk så for å se værobservasjoner og -varsler.

For å forandre kartet kan du klikke på den grønne knappen med svart kryss for å zoome inn, på den grønne knappen med strek for å zoome ut, eller på de grønne pilene for å se tilstøtende kart.


METAR-TAF: